sensor_id;sensor_type;location;lat;lon;timestamp;temperature;humidity
72883;DHT22;61017;37.812;-122.286;2023-03-02T00:01:10;13.20;54.40
72883;DHT22;61017;37.812;-122.286;2023-03-02T00:02:41;13.20;54.20
72883;DHT22;61017;37.812;-122.286;2023-03-02T00:04:38;13.20;54.00
72883;DHT22;61017;37.812;-122.286;2023-03-02T00:06:12;13.20;53.90
72883;DHT22;61017;37.812;-122.286;2023-03-02T00:07:43;13.20;53.80
72883;DHT22;61017;37.812;-122.286;2023-03-02T00:09:15;13.20;53.70
72883;DHT22;61017;37.812;-122.286;2023-03-02T00:10:47;13.20;53.40
72883;DHT22;61017;37.812;-122.286;2023-03-02T00:12:19;13.20;53.30
72883;DHT22;61017;37.812;-122.286;2023-03-02T00:13:50;13.20;53.10
72883;DHT22;61017;37.812;-122.286;2023-03-02T00:15:22;13.20;53.10
72883;DHT22;61017;37.812;-122.286;2023-03-02T00:16:54;13.20;53.40
72883;DHT22;61017;37.812;-122.286;2023-03-02T00:18:25;13.20;53.30
72883;DHT22;61017;37.812;-122.286;2023-03-02T00:19:57;13.20;53.00
72883;DHT22;61017;37.812;-122.286;2023-03-02T00:21:29;13.20;53.00
72883;DHT22;61017;37.812;-122.286;2023-03-02T00:23:00;13.20;52.90
72883;DHT22;61017;37.812;-122.286;2023-03-02T00:24:32;13.20;52.80
72883;DHT22;61017;37.812;-122.286;2023-03-02T00:26:05;13.20;52.90
72883;DHT22;61017;37.812;-122.286;2023-03-02T00:27:36;13.20;53.10
72883;DHT22;61017;37.812;-122.286;2023-03-02T00:29:08;13.20;53.00
72883;DHT22;61017;37.812;-122.286;2023-03-02T00:30:40;13.20;53.00
72883;DHT22;61017;37.812;-122.286;2023-03-02T00:32:11;13.20;53.20
72883;DHT22;61017;37.812;-122.286;2023-03-02T00:33:43;13.20;53.40
72883;DHT22;61017;37.812;-122.286;2023-03-02T00:35:14;13.20;52.90
72883;DHT22;61017;37.812;-122.286;2023-03-02T00:36:46;13.20;53.00
72883;DHT22;61017;37.812;-122.286;2023-03-02T00:38:18;13.20;53.20
72883;DHT22;61017;37.812;-122.286;2023-03-02T00:39:51;13.20;53.20
72883;DHT22;61017;37.812;-122.286;2023-03-02T00:41:22;13.20;52.90
72883;DHT22;61017;37.812;-122.286;2023-03-02T00:42:54;13.20;52.90
72883;DHT22;61017;37.812;-122.286;2023-03-02T00:44:25;13.20;52.60
72883;DHT22;61017;37.812;-122.286;2023-03-02T00:45:57;13.20;52.20
72883;DHT22;61017;37.812;-122.286;2023-03-02T00:47:33;13.20;52.00
72883;DHT22;61017;37.812;-122.286;2023-03-02T00:49:05;13.20;51.90
72883;DHT22;61017;37.812;-122.286;2023-03-02T00:50:37;13.20;51.90
72883;DHT22;61017;37.812;-122.286;2023-03-02T00:52:08;13.20;52.00
72883;DHT22;61017;37.812;-122.286;2023-03-02T00:53:41;13.20;51.90
72883;DHT22;61017;37.812;-122.286;2023-03-02T00:55:13;13.20;51.90
72883;DHT22;61017;37.812;-122.286;2023-03-02T00:56:44;13.20;51.50
72883;DHT22;61017;37.812;-122.286;2023-03-02T00:58:16;13.20;51.80
72883;DHT22;61017;37.812;-122.286;2023-03-02T00:59:48;13.20;51.30
72883;DHT22;61017;37.812;-122.286;2023-03-02T01:01:19;13.20;51.60
72883;DHT22;61017;37.812;-122.286;2023-03-02T01:02:51;13.20;51.50
72883;DHT22;61017;37.812;-122.286;2023-03-02T01:04:31;13.20;51.40
72883;DHT22;61017;37.812;-122.286;2023-03-02T01:06:04;13.20;51.40
72883;DHT22;61017;37.812;-122.286;2023-03-02T01:07:35;13.20;51.60
72883;DHT22;61017;37.812;-122.286;2023-03-02T01:09:07;13.20;51.40
72883;DHT22;61017;37.812;-122.286;2023-03-02T01:10:39;13.20;51.40
72883;DHT22;61017;37.812;-122.286;2023-03-02T01:12:11;13.20;51.60
72883;DHT22;61017;37.812;-122.286;2023-03-02T01:13:43;13.20;51.50
72883;DHT22;61017;37.812;-122.286;2023-03-02T01:15:15;13.20;51.10
72883;DHT22;61017;37.812;-122.286;2023-03-02T01:16:47;13.20;51.30
72883;DHT22;61017;37.812;-122.286;2023-03-02T01:18:18;13.20;51.00
72883;DHT22;61017;37.812;-122.286;2023-03-02T01:19:51;13.20;51.20
72883;DHT22;61017;37.812;-122.286;2023-03-02T01:21:23;13.20;51.40
72883;DHT22;61017;37.812;-122.286;2023-03-02T01:22:54;13.20;51.40
72883;DHT22;61017;37.812;-122.286;2023-03-02T01:24:26;13.20;51.20
72883;DHT22;61017;37.812;-122.286;2023-03-02T01:25:58;13.20;51.10
72883;DHT22;61017;37.812;-122.286;2023-03-02T01:27:30;13.10;51.00
72883;DHT22;61017;37.812;-122.286;2023-03-02T01:29:02;13.20;50.90
72883;DHT22;61017;37.812;-122.286;2023-03-02T01:30:34;13.20;50.50
72883;DHT22;61017;37.812;-122.286;2023-03-02T01:32:06;13.20;50.80
72883;DHT22;61017;37.812;-122.286;2023-03-02T01:33:38;13.10;50.80
72883;DHT22;61017;37.812;-122.286;2023-03-02T01:35:09;13.20;50.50
72883;DHT22;61017;37.812;-122.286;2023-03-02T01:36:44;13.10;50.90
72883;DHT22;61017;37.812;-122.286;2023-03-02T01:38:16;13.20;50.70
72883;DHT22;61017;37.812;-122.286;2023-03-02T01:39:49;13.20;50.90
72883;DHT22;61017;37.812;-122.286;2023-03-02T01:41:20;13.20;50.90
72883;DHT22;61017;37.812;-122.286;2023-03-02T01:42:57;13.20;50.90
72883;DHT22;61017;37.812;-122.286;2023-03-02T01:44:38;13.20;50.80
72883;DHT22;61017;37.812;-122.286;2023-03-02T01:46:16;13.20;50.90
72883;DHT22;61017;37.812;-122.286;2023-03-02T01:47:48;13.20;51.00
72883;DHT22;61017;37.812;-122.286;2023-03-02T01:49:20;13.20;50.90
72883;DHT22;61017;37.812;-122.286;2023-03-02T01:50:55;13.20;50.10
72883;DHT22;61017;37.812;-122.286;2023-03-02T01:52:30;13.20;50.50
72883;DHT22;61017;37.812;-122.286;2023-03-02T01:54:09;13.20;50.30
72883;DHT22;61017;37.812;-122.286;2023-03-02T01:55:42;13.20;50.10
72883;DHT22;61017;37.812;-122.286;2023-03-02T01:57:21;13.20;50.30
72883;DHT22;61017;37.812;-122.286;2023-03-02T01:59:01;13.20;50.00
72883;DHT22;61017;37.812;-122.286;2023-03-02T02:00:36;13.20;50.10
72883;DHT22;61017;37.812;-122.286;2023-03-02T02:02:09;13.20;50.30
72883;DHT22;61017;37.812;-122.286;2023-03-02T02:03:45;13.20;50.40
72883;DHT22;61017;37.812;-122.286;2023-03-02T02:05:23;13.20;50.40
72883;DHT22;61017;37.812;-122.286;2023-03-02T02:07:01;13.20;50.70
72883;DHT22;61017;37.812;-122.286;2023-03-02T02:08:36;13.20;50.50
72883;DHT22;61017;37.812;-122.286;2023-03-02T02:10:09;13.20;50.50
72883;DHT22;61017;37.812;-122.286;2023-03-02T02:11:45;13.20;50.50
72883;DHT22;61017;37.812;-122.286;2023-03-02T02:13:16;13.20;50.70
72883;DHT22;61017;37.812;-122.286;2023-03-02T02:14:49;13.20;50.70
72883;DHT22;61017;37.812;-122.286;2023-03-02T02:16:20;13.20;50.60
72883;DHT22;61017;37.812;-122.286;2023-03-02T02:17:52;13.20;50.60
72883;DHT22;61017;37.812;-122.286;2023-03-02T02:21:11;13.20;50.80
72883;DHT22;61017;37.812;-122.286;2023-03-02T02:23:05;13.20;50.70
72883;DHT22;61017;37.812;-122.286;2023-03-02T02:24:50;13.20;50.50
72883;DHT22;61017;37.812;-122.286;2023-03-02T02:26:31;13.20;50.70
72883;DHT22;61017;37.812;-122.286;2023-03-02T02:28:06;13.20;51.70
72883;DHT22;61017;37.812;-122.286;2023-03-02T02:29:49;13.20;51.50
72883;DHT22;61017;37.812;-122.286;2023-03-02T02:32:59;13.20;51.50
72883;DHT22;61017;37.812;-122.286;2023-03-02T02:34:47;13.20;51.60
72883;DHT22;61017;37.812;-122.286;2023-03-02T02:36:42;13.20;51.30
72883;DHT22;61017;37.812;-122.286;2023-03-02T02:38:18;13.20;51.70
72883;DHT22;61017;37.812;-122.286;2023-03-02T02:39:51;13.20;51.60
72883;DHT22;61017;37.812;-122.286;2023-03-02T02:41:30;13.20;51.70
72883;DHT22;61017;37.812;-122.286;2023-03-02T02:43:03;13.20;51.80
72883;DHT22;61017;37.812;-122.286;2023-03-02T02:44:35;13.20;52.00
72883;DHT22;61017;37.812;-122.286;2023-03-02T02:46:09;13.20;52.10
72883;DHT22;61017;37.812;-122.286;2023-03-02T02:47:42;13.20;52.00
72883;DHT22;61017;37.812;-122.286;2023-03-02T02:49:38;13.20;52.30
72883;DHT22;61017;37.812;-122.286;2023-03-02T02:51:24;13.20;52.50
72883;DHT22;61017;37.812;-122.286;2023-03-02T02:53:06;13.20;52.80
72883;DHT22;61017;37.812;-122.286;2023-03-02T02:54:48;13.20;52.80
72883;DHT22;61017;37.812;-122.286;2023-03-02T02:56:20;13.20;53.30
72883;DHT22;61017;37.812;-122.286;2023-03-02T02:57:55;13.20;53.50
72883;DHT22;61017;37.812;-122.286;2023-03-02T02:59:31;13.20;53.70
72883;DHT22;61017;37.812;-122.286;2023-03-02T03:01:04;13.20;54.00
72883;DHT22;61017;37.812;-122.286;2023-03-02T03:02:40;13.20;54.00
72883;DHT22;61017;37.812;-122.286;2023-03-02T03:04:22;13.20;54.20
72883;DHT22;61017;37.812;-122.286;2023-03-02T03:05:59;13.20;54.50
72883;DHT22;61017;37.812;-122.286;2023-03-02T03:07:31;13.20;54.70
72883;DHT22;61017;37.812;-122.286;2023-03-02T03:09:07;13.20;55.20
72883;DHT22;61017;37.812;-122.286;2023-03-02T03:10:40;13.20;54.70
72883;DHT22;61017;37.812;-122.286;2023-03-02T03:12:18;13.20;54.90
72883;DHT22;61017;37.812;-122.286;2023-03-02T03:14:21;13.20;54.80
72883;DHT22;61017;37.812;-122.286;2023-03-02T03:15:55;13.20;55.00
72883;DHT22;61017;37.812;-122.286;2023-03-02T03:17:28;13.20;55.10
72883;DHT22;61017;37.812;-122.286;2023-03-02T03:19:14;13.20;55.20
72883;DHT22;61017;37.812;-122.286;2023-03-02T03:20:46;13.20;55.20
72883;DHT22;61017;37.812;-122.286;2023-03-02T03:22:18;13.20;55.40
72883;DHT22;61017;37.812;-122.286;2023-03-02T03:23:50;13.20;55.40
72883;DHT22;61017;37.812;-122.286;2023-03-02T03:25:24;13.20;55.70
72883;DHT22;61017;37.812;-122.286;2023-03-02T03:26:56;13.20;55.80
72883;DHT22;61017;37.812;-122.286;2023-03-02T03:28:29;13.20;56.00
72883;DHT22;61017;37.812;-122.286;2023-03-02T03:30:02;13.30;56.20
72883;DHT22;61017;37.812;-122.286;2023-03-02T03:31:34;13.30;56.10
72883;DHT22;61017;37.812;-122.286;2023-03-02T03:33:06;13.30;56.60
72883;DHT22;61017;37.812;-122.286;2023-03-02T03:34:38;13.30;56.70
72883;DHT22;61017;37.812;-122.286;2023-03-02T03:36:10;13.30;56.60
72883;DHT22;61017;37.812;-122.286;2023-03-02T03:37:41;13.20;56.80
72883;DHT22;61017;37.812;-122.286;2023-03-02T03:39:14;13.20;56.80
72883;DHT22;61017;37.812;-122.286;2023-03-02T03:40:46;13.30;57.10
72883;DHT22;61017;37.812;-122.286;2023-03-02T03:42:17;13.30;57.40
72883;DHT22;61017;37.812;-122.286;2023-03-02T03:43:52;13.20;57.60
72883;DHT22;61017;37.812;-122.286;2023-03-02T03:45:23;13.30;57.90
72883;DHT22;61017;37.812;-122.286;2023-03-02T03:46:55;13.30;58.10
72883;DHT22;61017;37.812;-122.286;2023-03-02T03:48:27;13.30;58.30
72883;DHT22;61017;37.812;-122.286;2023-03-02T03:49:58;13.30;58.50
72883;DHT22;61017;37.812;-122.286;2023-03-02T03:51:30;13.30;58.90
72883;DHT22;61017;37.812;-122.286;2023-03-02T03:53:02;13.30;58.90
72883;DHT22;61017;37.812;-122.286;2023-03-02T03:54:34;13.30;58.80
72883;DHT22;61017;37.812;-122.286;2023-03-02T03:56:06;13.30;59.00
72883;DHT22;61017;37.812;-122.286;2023-03-02T03:57:38;13.30;59.10
72883;DHT22;61017;37.812;-122.286;2023-03-02T03:59:12;13.30;59.20
72883;DHT22;61017;37.812;-122.286;2023-03-02T04:00:44;13.30;59.50
72883;DHT22;61017;37.812;-122.286;2023-03-02T04:02:16;13.30;59.60
72883;DHT22;61017;37.812;-122.286;2023-03-02T04:03:48;13.30;59.70
72883;DHT22;61017;37.812;-122.286;2023-03-02T04:05:19;13.30;59.80
72883;DHT22;61017;37.812;-122.286;2023-03-02T04:06:52;13.30;61.30
72883;DHT22;61017;37.812;-122.286;2023-03-02T04:08:23;13.40;59.90
72883;DHT22;61017;37.812;-122.286;2023-03-02T04:09:58;13.50;58.30
72883;DHT22;61017;37.812;-122.286;2023-03-02T04:11:39;13.60;57.20
72883;DHT22;61017;37.812;-122.286;2023-03-02T04:13:14;13.80;56.00
72883;DHT22;61017;37.812;-122.286;2023-03-02T04:14:46;13.90;54.90
72883;DHT22;61017;37.812;-122.286;2023-03-02T04:16:18;14.00;55.20
72883;DHT22;61017;37.812;-122.286;2023-03-02T04:17:50;13.80;55.80
72883;DHT22;61017;37.812;-122.286;2023-03-02T04:19:22;13.80;56.40
72883;DHT22;61017;37.812;-122.286;2023-03-02T04:20:53;14.00;55.60
72883;DHT22;61017;37.812;-122.286;2023-03-02T04:22:26;14.10;53.90
72883;DHT22;61017;37.812;-122.286;2023-03-02T04:23:57;14.10;53.20
72883;DHT22;61017;37.812;-122.286;2023-03-02T04:25:32;14.20;52.60
72883;DHT22;61017;37.812;-122.286;2023-03-02T04:27:04;14.30;52.00
72883;DHT22;61017;37.812;-122.286;2023-03-02T04:28:35;14.30;52.00
72883;DHT22;61017;37.812;-122.286;2023-03-02T04:30:07;14.20;53.30
72883;DHT22;61017;37.812;-122.286;2023-03-02T04:31:40;14.10;54.00
72883;DHT22;61017;37.812;-122.286;2023-03-02T04:33:14;14.20;52.70
72883;DHT22;61017;37.812;-122.286;2023-03-02T04:34:46;14.30;51.90
72883;DHT22;61017;37.812;-122.286;2023-03-02T04:36:17;14.40;51.30
72883;DHT22;61017;37.812;-122.286;2023-03-02T04:37:49;14.40;50.80
72883;DHT22;61017;37.812;-122.286;2023-03-02T04:39:21;14.40;50.40
72883;DHT22;61017;37.812;-122.286;2023-03-02T04:40:56;14.40;50.80
72883;DHT22;61017;37.812;-122.286;2023-03-02T04:42:28;14.20;51.80
72883;DHT22;61017;37.812;-122.286;2023-03-02T04:44:00;14.20;52.80
72883;DHT22;61017;37.812;-122.286;2023-03-02T04:45:32;14.30;51.50
72883;DHT22;61017;37.812;-122.286;2023-03-02T04:47:04;14.30;50.70
72883;DHT22;61017;37.812;-122.286;2023-03-02T04:48:35;14.50;50.30
72883;DHT22;61017;37.812;-122.286;2023-03-02T04:50:08;14.50;50.00
72883;DHT22;61017;37.812;-122.286;2023-03-02T04:51:44;14.50;49.50
72883;DHT22;61017;37.812;-122.286;2023-03-02T04:53:18;14.50;50.20
72883;DHT22;61017;37.812;-122.286;2023-03-02T04:54:50;14.30;51.20
72883;DHT22;61017;37.812;-122.286;2023-03-02T04:56:22;14.30;51.90
72883;DHT22;61017;37.812;-122.286;2023-03-02T04:57:53;14.40;50.90
72883;DHT22;61017;37.812;-122.286;2023-03-02T04:59:27;14.40;50.20
72883;DHT22;61017;37.812;-122.286;2023-03-02T05:00:59;14.50;50.00
72883;DHT22;61017;37.812;-122.286;2023-03-02T05:02:30;14.50;49.50
72883;DHT22;61017;37.812;-122.286;2023-03-02T05:04:03;14.60;49.50
72883;DHT22;61017;37.812;-122.286;2023-03-02T05:05:38;14.50;50.20
72883;DHT22;61017;37.812;-122.286;2023-03-02T05:07:15;14.30;51.20
72883;DHT22;61017;37.812;-122.286;2023-03-02T05:08:47;14.30;51.90
72883;DHT22;61017;37.812;-122.286;2023-03-02T05:10:20;14.40;50.80
72883;DHT22;61017;37.812;-122.286;2023-03-02T05:12:00;14.50;50.30
72883;DHT22;61017;37.812;-122.286;2023-03-02T05:13:40;14.50;49.80
72883;DHT22;61017;37.812;-122.286;2023-03-02T05:15:11;14.50;49.50
72883;DHT22;61017;37.812;-122.286;2023-03-02T05:16:43;14.60;49.20
72883;DHT22;61017;37.812;-122.286;2023-03-02T05:18:15;14.50;50.40
72883;DHT22;61017;37.812;-122.286;2023-03-02T05:20:09;14.30;51.50
72883;DHT22;61017;37.812;-122.286;2023-03-02T05:21:59;14.30;51.40
72883;DHT22;61017;37.812;-122.286;2023-03-02T05:23:58;14.50;50.40
72883;DHT22;61017;37.812;-122.286;2023-03-02T05:25:52;14.40;51.70
72883;DHT22;61017;37.812;-122.286;2023-03-02T05:27:48;14.10;53.00
72883;DHT22;61017;37.812;-122.286;2023-03-02T05:29:42;14.00;54.10
72883;DHT22;61017;37.812;-122.286;2023-03-02T05:31:39;13.90;55.10
72883;DHT22;61017;37.812;-122.286;2023-03-02T05:33:31;13.90;56.40
72883;DHT22;61017;37.812;-122.286;2023-03-02T05:35:29;13.90;56.30
72883;DHT22;61017;37.812;-122.286;2023-03-02T05:37:21;13.90;56.60
72883;DHT22;61017;37.812;-122.286;2023-03-02T05:39:16;13.90;57.10
72883;DHT22;61017;37.812;-122.286;2023-03-02T05:41:26;13.90;57.50
72883;DHT22;61017;37.812;-122.286;2023-03-02T05:43:19;13.80;58.10
72883;DHT22;61017;37.812;-122.286;2023-03-02T05:45:25;13.80;58.00
72883;DHT22;61017;37.812;-122.286;2023-03-02T05:47:17;13.80;58.30
72883;DHT22;61017;37.812;-122.286;2023-03-02T05:49:09;13.80;58.40
72883;DHT22;61017;37.812;-122.286;2023-03-02T05:51:01;13.70;58.40
72883;DHT22;61017;37.812;-122.286;2023-03-02T05:52:52;13.70;58.50
72883;DHT22;61017;37.812;-122.286;2023-03-02T05:54:44;13.60;58.60
72883;DHT22;61017;37.812;-122.286;2023-03-02T05:56:39;13.60;58.70
72883;DHT22;61017;37.812;-122.286;2023-03-02T05:58:31;13.60;58.80
72883;DHT22;61017;37.812;-122.286;2023-03-02T06:00:23;13.60;58.90
72883;DHT22;61017;37.812;-122.286;2023-03-02T06:02:15;13.60;59.10
72883;DHT22;61017;37.812;-122.286;2023-03-02T06:05:48;13.60;59.20
72883;DHT22;61017;37.812;-122.286;2023-03-02T06:07:40;13.60;59.10
72883;DHT22;61017;37.812;-122.286;2023-03-02T06:09:32;13.60;59.00
72883;DHT22;61017;37.812;-122.286;2023-03-02T06:11:24;13.60;59.20
72883;DHT22;61017;37.812;-122.286;2023-03-02T06:13:16;13.60;59.20
72883;DHT22;61017;37.812;-122.286;2023-03-02T06:15:09;13.60;59.10
72883;DHT22;61017;37.812;-122.286;2023-03-02T06:17:01;13.60;59.10
72883;DHT22;61017;37.812;-122.286;2023-03-02T06:18:52;13.60;59.30
72883;DHT22;61017;37.812;-122.286;2023-03-02T06:20:44;13.60;59.20
72883;DHT22;61017;37.812;-122.286;2023-03-02T06:22:41;13.60;59.10
72883;DHT22;61017;37.812;-122.286;2023-03-02T06:24:33;13.60;59.10
72883;DHT22;61017;37.812;-122.286;2023-03-02T06:26:25;13.60;59.00
72883;DHT22;61017;37.812;-122.286;2023-03-02T06:28:17;13.60;59.10
72883;DHT22;61017;37.812;-122.286;2023-03-02T06:30:14;13.60;59.10
72883;DHT22;61017;37.812;-122.286;2023-03-02T06:32:06;13.60;59.00
72883;DHT22;61017;37.812;-122.286;2023-03-02T06:33:59;13.60;59.00
72883;DHT22;61017;37.812;-122.286;2023-03-02T06:35:51;13.60;58.90
72883;DHT22;61017;37.812;-122.286;2023-03-02T06:37:45;13.50;58.80
72883;DHT22;61017;37.812;-122.286;2023-03-02T06:39:37;13.50;59.30
72883;DHT22;61017;37.812;-122.286;2023-03-02T06:41:29;13.50;58.80
72883;DHT22;61017;37.812;-122.286;2023-03-02T06:43:21;13.50;58.80
72883;DHT22;61017;37.812;-122.286;2023-03-02T06:45:19;13.50;58.80
72883;DHT22;61017;37.812;-122.286;2023-03-02T06:47:19;13.50;58.70
72883;DHT22;61017;37.812;-122.286;2023-03-02T06:49:11;13.50;59.30
72883;DHT22;61017;37.812;-122.286;2023-03-02T06:51:03;13.50;58.70
72883;DHT22;61017;37.812;-122.286;2023-03-02T06:52:55;13.50;58.60
72883;DHT22;61017;37.812;-122.286;2023-03-02T06:54:47;13.50;58.80
72883;DHT22;61017;37.812;-122.286;2023-03-02T06:56:41;13.50;58.90
72883;DHT22;61017;37.812;-122.286;2023-03-02T06:58:33;13.50;59.00
72883;DHT22;61017;37.812;-122.286;2023-03-02T07:00:25;13.50;58.90
72883;DHT22;61017;37.812;-122.286;2023-03-02T07:02:17;13.50;58.90
72883;DHT22;61017;37.812;-122.286;2023-03-02T07:04:09;13.40;58.90
72883;DHT22;61017;37.812;-122.286;2023-03-02T07:06:02;13.40;58.90
72883;DHT22;61017;37.812;-122.286;2023-03-02T07:07:54;13.50;59.10
72883;DHT22;61017;37.812;-122.286;2023-03-02T07:09:45;13.40;58.90
72883;DHT22;61017;37.812;-122.286;2023-03-02T07:11:38;13.40;59.50
72883;DHT22;61017;37.812;-122.286;2023-03-02T07:13:30;13.40;58.90
72883;DHT22;61017;37.812;-122.286;2023-03-02T07:15:22;13.40;59.00
72883;DHT22;61017;37.812;-122.286;2023-03-02T07:17:14;13.50;59.10
72883;DHT22;61017;37.812;-122.286;2023-03-02T07:19:05;13.40;58.90
72883;DHT22;61017;37.812;-122.286;2023-03-02T07:21:00;13.40;59.00
72883;DHT22;61017;37.812;-122.286;2023-03-02T07:22:52;13.40;58.90
72883;DHT22;61017;37.812;-122.286;2023-03-02T07:24:44;13.40;58.90
72883;DHT22;61017;37.812;-122.286;2023-03-02T07:26:38;13.40;58.90
72883;DHT22;61017;37.812;-122.286;2023-03-02T07:28:31;13.40;58.90
72883;DHT22;61017;37.812;-122.286;2023-03-02T07:30:23;13.40;58.80
72883;DHT22;61017;37.812;-122.286;2023-03-02T07:32:14;13.40;58.80
72883;DHT22;61017;37.812;-122.286;2023-03-02T07:34:06;13.40;58.80
72883;DHT22;61017;37.812;-122.286;2023-03-02T07:35:58;13.40;58.80
72883;DHT22;61017;37.812;-122.286;2023-03-02T07:37:51;13.40;58.80
72883;DHT22;61017;37.812;-122.286;2023-03-02T07:39:43;13.40;58.80
72883;DHT22;61017;37.812;-122.286;2023-03-02T07:41:34;13.40;58.70
72883;DHT22;61017;37.812;-122.286;2023-03-02T07:43:26;13.40;58.60
72883;DHT22;61017;37.812;-122.286;2023-03-02T07:45:18;13.40;58.50
72883;DHT22;61017;37.812;-122.286;2023-03-02T07:47:10;13.40;58.50
72883;DHT22;61017;37.812;-122.286;2023-03-02T07:49:02;13.40;58.40
72883;DHT22;61017;37.812;-122.286;2023-03-02T07:51:01;13.40;58.50
72883;DHT22;61017;37.812;-122.286;2023-03-02T07:52:53;13.40;58.50
72883;DHT22;61017;37.812;-122.286;2023-03-02T07:54:45;13.40;58.50
72883;DHT22;61017;37.812;-122.286;2023-03-02T07:56:37;13.40;58.40
72883;DHT22;61017;37.812;-122.286;2023-03-02T07:58:29;13.40;58.30
72883;DHT22;61017;37.812;-122.286;2023-03-02T08:00:21;13.40;58.50
72883;DHT22;61017;37.812;-122.286;2023-03-02T08:02:15;13.40;58.50
72883;DHT22;61017;37.812;-122.286;2023-03-02T08:04:07;13.40;58.80
72883;DHT22;61017;37.812;-122.286;2023-03-02T08:06:12;13.40;59.00
72883;DHT22;61017;37.812;-122.286;2023-03-02T08:08:04;13.40;58.90
72883;DHT22;61017;37.812;-122.286;2023-03-02T08:09:56;13.40;58.80
72883;DHT22;61017;37.812;-122.286;2023-03-02T08:11:48;13.40;59.00
72883;DHT22;61017;37.812;-122.286;2023-03-02T08:13:40;13.40;59.10
72883;DHT22;61017;37.812;-122.286;2023-03-02T08:15:32;13.40;59.10
72883;DHT22;61017;37.812;-122.286;2023-03-02T08:17:23;13.40;59.20
72883;DHT22;61017;37.812;-122.286;2023-03-02T08:19:15;13.40;59.00
72883;DHT22;61017;37.812;-122.286;2023-03-02T08:21:12;13.40;59.20
72883;DHT22;61017;37.812;-122.286;2023-03-02T08:23:04;13.40;59.00
72883;DHT22;61017;37.812;-122.286;2023-03-02T08:24:55;13.40;58.90
72883;DHT22;61017;37.812;-122.286;2023-03-02T08:26:47;13.40;59.00
72883;DHT22;61017;37.812;-122.286;2023-03-02T08:28:39;13.40;58.80
72883;DHT22;61017;37.812;-122.286;2023-03-02T08:30:31;13.40;58.50
72883;DHT22;61017;37.812;-122.286;2023-03-02T08:32:23;13.40;58.70
72883;DHT22;61017;37.812;-122.286;2023-03-02T08:34:15;13.40;58.70
72883;DHT22;61017;37.812;-122.286;2023-03-02T08:36:13;13.40;58.60
72883;DHT22;61017;37.812;-122.286;2023-03-02T08:38:09;13.40;58.70
72883;DHT22;61017;37.812;-122.286;2023-03-02T08:40:01;13.40;58.80
72883;DHT22;61017;37.812;-122.286;2023-03-02T08:41:53;13.40;58.80
72883;DHT22;61017;37.812;-122.286;2023-03-02T08:43:45;13.40;58.80
72883;DHT22;61017;37.812;-122.286;2023-03-02T08:45:43;13.40;58.80
72883;DHT22;61017;37.812;-122.286;2023-03-02T08:47:35;13.40;58.90
72883;DHT22;61017;37.812;-122.286;2023-03-02T08:49:27;13.40;58.80
72883;DHT22;61017;37.812;-122.286;2023-03-02T08:51:21;13.40;58.70
72883;DHT22;61017;37.812;-122.286;2023-03-02T08:53:13;13.40;58.80
72883;DHT22;61017;37.812;-122.286;2023-03-02T08:55:06;13.40;58.90
72883;DHT22;61017;37.812;-122.286;2023-03-02T08:56:58;13.40;58.80
72883;DHT22;61017;37.812;-122.286;2023-03-02T08:58:52;13.40;58.70
72883;DHT22;61017;37.812;-122.286;2023-03-02T09:00:44;13.40;59.00
72883;DHT22;61017;37.812;-122.286;2023-03-02T09:02:36;13.40;58.70
72883;DHT22;61017;37.812;-122.286;2023-03-02T09:04:28;13.40;58.80
72883;DHT22;61017;37.812;-122.286;2023-03-02T09:06:20;13.40;58.90
72883;DHT22;61017;37.812;-122.286;2023-03-02T09:08:16;13.40;59.00
72883;DHT22;61017;37.812;-122.286;2023-03-02T09:10:08;13.40;59.00
72883;DHT22;61017;37.812;-122.286;2023-03-02T09:12:00;13.40;59.10
72883;DHT22;61017;37.812;-122.286;2023-03-02T09:13:52;13.40;59.20
72883;DHT22;61017;37.812;-122.286;2023-03-02T09:15:44;13.40;58.90
72883;DHT22;61017;37.812;-122.286;2023-03-02T09:17:36;13.40;58.70
72883;DHT22;61017;37.812;-122.286;2023-03-02T09:19:28;13.40;58.90
72883;DHT22;61017;37.812;-122.286;2023-03-02T09:21:20;13.30;58.60
72883;DHT22;61017;37.812;-122.286;2023-03-02T09:23:12;13.30;58.50
72883;DHT22;61017;37.812;-122.286;2023-03-02T09:25:05;13.30;58.50
72883;DHT22;61017;37.812;-122.286;2023-03-02T09:26:57;13.30;58.60
72883;DHT22;61017;37.812;-122.286;2023-03-02T09:28:49;13.30;58.50
72883;DHT22;61017;37.812;-122.286;2023-03-02T09:30:46;13.30;58.50
72883;DHT22;61017;37.812;-122.286;2023-03-02T09:32:38;13.30;58.50
72883;DHT22;61017;37.812;-122.286;2023-03-02T09:34:30;13.30;58.50
72883;DHT22;61017;37.812;-122.286;2023-03-02T09:36:23;13.30;58.70
72883;DHT22;61017;37.812;-122.286;2023-03-02T09:38:17;13.30;58.80
72883;DHT22;61017;37.812;-122.286;2023-03-02T09:40:26;13.30;58.70
72883;DHT22;61017;37.812;-122.286;2023-03-02T09:46:55;13.30;58.80
72883;DHT22;61017;37.812;-122.286;2023-03-02T09:55:27;13.30;58.90
72883;DHT22;61017;37.812;-122.286;2023-03-02T09:57:32;13.30;59.00
72883;DHT22;61017;37.812;-122.286;2023-03-02T09:59:37;13.30;59.00
72883;DHT22;61017;37.812;-122.286;2023-03-02T10:01:41;13.30;59.10
72883;DHT22;61017;37.812;-122.286;2023-03-02T10:03:47;13.30;59.10
72883;DHT22;61017;37.812;-122.286;2023-03-02T10:05:46;13.30;59.20
72883;DHT22;61017;37.812;-122.286;2023-03-02T10:07:38;13.30;59.20
72883;DHT22;61017;37.812;-122.286;2023-03-02T10:09:30;13.30;59.20
72883;DHT22;61017;37.812;-122.286;2023-03-02T10:11:49;13.30;59.20
72883;DHT22;61017;37.812;-122.286;2023-03-02T10:15:50;13.30;59.30
72883;DHT22;61017;37.812;-122.286;2023-03-02T10:17:58;13.30;59.40
72883;DHT22;61017;37.812;-122.286;2023-03-02T10:19:59;13.30;59.20
72883;DHT22;61017;37.812;-122.286;2023-03-02T10:22:18;13.30;59.10
72883;DHT22;61017;37.812;-122.286;2023-03-02T10:24:28;13.30;59.10
72883;DHT22;61017;37.812;-122.286;2023-03-02T10:28:37;13.30;59.30
72883;DHT22;61017;37.812;-122.286;2023-03-02T10:30:36;13.30;59.30
72883;DHT22;61017;37.812;-122.286;2023-03-02T10:34:30;13.30;59.30
72883;DHT22;61017;37.812;-122.286;2023-03-02T10:36:24;13.30;59.20
72883;DHT22;61017;37.812;-122.286;2023-03-02T10:38:23;13.30;59.20
72883;DHT22;61017;37.812;-122.286;2023-03-02T10:40:37;13.30;58.90
72883;DHT22;61017;37.812;-122.286;2023-03-02T10:42:38;13.30;58.80
72883;DHT22;61017;37.812;-122.286;2023-03-02T10:44:39;13.30;58.80